sensor_id;sensor_type;location;lat;lon;timestamp;temperature;humidity
60473;DHT22;46318;52.716;6.444;2022-10-16T00:01:22;12.80;99.90
60473;DHT22;46318;52.716;6.444;2022-10-16T00:03:50;12.80;99.90
60473;DHT22;46318;52.716;6.444;2022-10-16T00:06:17;12.80;99.90
60473;DHT22;46318;52.716;6.444;2022-10-16T00:08:44;12.80;99.90
60473;DHT22;46318;52.716;6.444;2022-10-16T00:11:16;12.80;99.90
60473;DHT22;46318;52.716;6.444;2022-10-16T00:13:44;12.80;99.90
60473;DHT22;46318;52.716;6.444;2022-10-16T00:16:11;12.80;99.90
60473;DHT22;46318;52.716;6.444;2022-10-16T00:18:38;12.80;99.90
60473;DHT22;46318;52.716;6.444;2022-10-16T00:21:07;12.80;99.90
60473;DHT22;46318;52.716;6.444;2022-10-16T00:23:34;12.80;99.90
60473;DHT22;46318;52.716;6.444;2022-10-16T00:26:04;12.80;99.90
60473;DHT22;46318;52.716;6.444;2022-10-16T00:28:32;12.80;99.90
60473;DHT22;46318;52.716;6.444;2022-10-16T00:30:58;12.70;99.90
60473;DHT22;46318;52.716;6.444;2022-10-16T00:33:24;12.70;99.90
60473;DHT22;46318;52.716;6.444;2022-10-16T00:35:50;12.70;99.90
60473;DHT22;46318;52.716;6.444;2022-10-16T00:38:16;12.70;99.90
60473;DHT22;46318;52.716;6.444;2022-10-16T00:40:42;12.70;99.90
60473;DHT22;46318;52.716;6.444;2022-10-16T00:43:42;12.70;99.90
60473;DHT22;46318;52.716;6.444;2022-10-16T00:46:29;12.70;99.90
60473;DHT22;46318;52.716;6.444;2022-10-16T00:49:11;12.60;99.90
60473;DHT22;46318;52.716;6.444;2022-10-16T00:51:44;12.60;99.90
60473;DHT22;46318;52.716;6.444;2022-10-16T00:54:16;12.60;99.90
60473;DHT22;46318;52.716;6.444;2022-10-16T00:56:45;12.60;99.90
60473;DHT22;46318;52.716;6.444;2022-10-16T00:59:22;12.60;99.90
60473;DHT22;46318;52.716;6.444;2022-10-16T01:01:51;12.60;99.90
60473;DHT22;46318;52.716;6.444;2022-10-16T01:04:18;12.60;99.90
60473;DHT22;46318;52.716;6.444;2022-10-16T01:07:14;12.60;99.90
60473;DHT22;46318;52.716;6.444;2022-10-16T01:12:40;12.60;99.90
60473;DHT22;46318;52.716;6.444;2022-10-16T01:20:34;12.60;99.90
60473;DHT22;46318;52.716;6.444;2022-10-16T01:31:32;12.50;99.90
60473;DHT22;46318;52.716;6.444;2022-10-16T01:34:05;12.50;99.90
60473;DHT22;46318;52.716;6.444;2022-10-16T01:36:39;12.50;99.90
60473;DHT22;46318;52.716;6.444;2022-10-16T01:39:10;12.50;99.90
60473;DHT22;46318;52.716;6.444;2022-10-16T01:41:44;12.50;99.90
60473;DHT22;46318;52.716;6.444;2022-10-16T01:44:20;12.50;99.90
60473;DHT22;46318;52.716;6.444;2022-10-16T01:46:50;12.50;99.90
60473;DHT22;46318;52.716;6.444;2022-10-16T01:49:17;12.50;99.90
60473;DHT22;46318;52.716;6.444;2022-10-16T01:51:48;12.50;99.90
60473;DHT22;46318;52.716;6.444;2022-10-16T01:54:19;12.50;99.90
60473;DHT22;46318;52.716;6.444;2022-10-16T01:56:46;12.50;99.90
60473;DHT22;46318;52.716;6.444;2022-10-16T01:59:18;12.50;99.90
60473;DHT22;46318;52.716;6.444;2022-10-16T02:01:47;12.50;99.90
60473;DHT22;46318;52.716;6.444;2022-10-16T02:04:19;12.50;99.90
60473;DHT22;46318;52.716;6.444;2022-10-16T02:06:49;12.50;99.90
60473;DHT22;46318;52.716;6.444;2022-10-16T02:09:15;12.50;99.90
60473;DHT22;46318;52.716;6.444;2022-10-16T02:11:43;12.50;99.90
60473;DHT22;46318;52.716;6.444;2022-10-16T02:14:09;12.50;99.90
60473;DHT22;46318;52.716;6.444;2022-10-16T02:16:43;12.50;99.90
60473;DHT22;46318;52.716;6.444;2022-10-16T02:19:12;12.50;99.90
60473;DHT22;46318;52.716;6.444;2022-10-16T02:30:14;12.50;99.90
60473;DHT22;46318;52.716;6.444;2022-10-16T02:32:46;12.50;99.90
60473;DHT22;46318;52.716;6.444;2022-10-16T02:35:16;12.50;99.90
60473;DHT22;46318;52.716;6.444;2022-10-16T02:37:43;12.50;99.90
60473;DHT22;46318;52.716;6.444;2022-10-16T02:40:10;12.60;99.90
60473;DHT22;46318;52.716;6.444;2022-10-16T02:42:38;12.60;99.90
60473;DHT22;46318;52.716;6.444;2022-10-16T02:45:06;12.60;99.90
60473;DHT22;46318;52.716;6.444;2022-10-16T02:47:33;12.60;99.90
60473;DHT22;46318;52.716;6.444;2022-10-16T02:49:59;12.60;99.90
60473;DHT22;46318;52.716;6.444;2022-10-16T02:52:25;12.60;99.90
60473;DHT22;46318;52.716;6.444;2022-10-16T02:54:50;12.60;99.90
60473;DHT22;46318;52.716;6.444;2022-10-16T02:57:17;12.60;99.90
60473;DHT22;46318;52.716;6.444;2022-10-16T02:59:44;12.60;99.90
60473;DHT22;46318;52.716;6.444;2022-10-16T03:02:10;12.60;99.90
60473;DHT22;46318;52.716;6.444;2022-10-16T03:04:36;12.70;99.90
60473;DHT22;46318;52.716;6.444;2022-10-16T03:07:03;12.60;99.90
60473;DHT22;46318;52.716;6.444;2022-10-16T03:09:29;12.60;99.90
60473;DHT22;46318;52.716;6.444;2022-10-16T03:11:54;12.70;99.90
60473;DHT22;46318;52.716;6.444;2022-10-16T03:14:20;12.70;99.90
60473;DHT22;46318;52.716;6.444;2022-10-16T03:16:46;12.70;99.90
60473;DHT22;46318;52.716;6.444;2022-10-16T03:19:12;12.70;99.90
60473;DHT22;46318;52.716;6.444;2022-10-16T03:21:38;12.70;99.90
60473;DHT22;46318;52.716;6.444;2022-10-16T03:24:03;12.70;99.90
60473;DHT22;46318;52.716;6.444;2022-10-16T03:26:29;12.70;99.90
60473;DHT22;46318;52.716;6.444;2022-10-16T03:28:55;12.70;99.90
60473;DHT22;46318;52.716;6.444;2022-10-16T03:31:21;12.70;99.90
60473;DHT22;46318;52.716;6.444;2022-10-16T03:33:47;12.70;99.90
60473;DHT22;46318;52.716;6.444;2022-10-16T03:36:12;12.70;99.90
60473;DHT22;46318;52.716;6.444;2022-10-16T03:38:38;12.70;99.90
60473;DHT22;46318;52.716;6.444;2022-10-16T03:41:04;12.70;99.90
60473;DHT22;46318;52.716;6.444;2022-10-16T03:43:30;12.70;99.90
60473;DHT22;46318;52.716;6.444;2022-10-16T03:45:56;12.70;99.90
60473;DHT22;46318;52.716;6.444;2022-10-16T03:48:23;12.70;99.90
60473;DHT22;46318;52.716;6.444;2022-10-16T03:50:49;12.70;99.90
60473;DHT22;46318;52.716;6.444;2022-10-16T03:53:17;12.70;99.90
60473;DHT22;46318;52.716;6.444;2022-10-16T03:55:43;12.70;99.90
60473;DHT22;46318;52.716;6.444;2022-10-16T03:58:10;12.70;99.90
60473;DHT22;46318;52.716;6.444;2022-10-16T04:00:43;12.70;99.90
60473;DHT22;46318;52.716;6.444;2022-10-16T04:03:09;12.70;99.90
60473;DHT22;46318;52.716;6.444;2022-10-16T04:05:36;12.70;99.90
60473;DHT22;46318;52.716;6.444;2022-10-16T04:08:02;12.60;99.90
60473;DHT22;46318;52.716;6.444;2022-10-16T04:10:28;12.60;99.90
60473;DHT22;46318;52.716;6.444;2022-10-16T04:12:54;12.60;99.90
60473;DHT22;46318;52.716;6.444;2022-10-16T04:15:22;12.60;99.90
60473;DHT22;46318;52.716;6.444;2022-10-16T04:17:48;12.60;99.90
60473;DHT22;46318;52.716;6.444;2022-10-16T04:20:14;12.60;99.90
60473;DHT22;46318;52.716;6.444;2022-10-16T04:22:40;12.60;99.90
60473;DHT22;46318;52.716;6.444;2022-10-16T04:25:06;12.60;99.90
60473;DHT22;46318;52.716;6.444;2022-10-16T04:27:31;12.50;99.90
60473;DHT22;46318;52.716;6.444;2022-10-16T04:29:58;12.60;99.90
60473;DHT22;46318;52.716;6.444;2022-10-16T04:32:25;12.50;99.90
60473;DHT22;46318;52.716;6.444;2022-10-16T04:34:51;12.50;99.90
60473;DHT22;46318;52.716;6.444;2022-10-16T04:37:17;12.50;99.90
60473;DHT22;46318;52.716;6.444;2022-10-16T04:39:42;12.50;99.90
60473;DHT22;46318;52.716;6.444;2022-10-16T04:42:08;12.50;99.90
60473;DHT22;46318;52.716;6.444;2022-10-16T04:44:34;12.50;99.90
60473;DHT22;46318;52.716;6.444;2022-10-16T04:47:00;12.50;99.90
60473;DHT22;46318;52.716;6.444;2022-10-16T04:49:26;12.50;99.90
60473;DHT22;46318;52.716;6.444;2022-10-16T04:51:52;12.50;99.90
60473;DHT22;46318;52.716;6.444;2022-10-16T04:54:17;12.50;99.90
60473;DHT22;46318;52.716;6.444;2022-10-16T04:56:43;12.50;99.90
60473;DHT22;46318;52.716;6.444;2022-10-16T04:59:14;12.50;99.90
60473;DHT22;46318;52.716;6.444;2022-10-16T05:01:40;12.50;99.90
60473;DHT22;46318;52.716;6.444;2022-10-16T05:04:06;12.50;99.90
60473;DHT22;46318;52.716;6.444;2022-10-16T05:06:32;12.50;99.90
60473;DHT22;46318;52.716;6.444;2022-10-16T05:08:58;12.50;99.90
60473;DHT22;46318;52.716;6.444;2022-10-16T05:11:23;12.50;99.90
60473;DHT22;46318;52.716;6.444;2022-10-16T05:13:49;12.50;99.90
60473;DHT22;46318;52.716;6.444;2022-10-16T05:16:15;12.50;99.90
60473;DHT22;46318;52.716;6.444;2022-10-16T05:18:41;12.50;99.90
60473;DHT22;46318;52.716;6.444;2022-10-16T05:21:07;12.50;99.90
60473;DHT22;46318;52.716;6.444;2022-10-16T05:23:33;12.50;99.90
60473;DHT22;46318;52.716;6.444;2022-10-16T05:25:59;12.50;99.90
60473;DHT22;46318;52.716;6.444;2022-10-16T05:28:26;12.50;99.90
60473;DHT22;46318;52.716;6.444;2022-10-16T05:30:53;12.50;99.90
60473;DHT22;46318;52.716;6.444;2022-10-16T05:33:20;12.40;99.90
60473;DHT22;46318;52.716;6.444;2022-10-16T05:35:47;12.40;99.90
60473;DHT22;46318;52.716;6.444;2022-10-16T05:38:13;12.40;99.90
60473;DHT22;46318;52.716;6.444;2022-10-16T05:40:39;12.40;99.90
60473;DHT22;46318;52.716;6.444;2022-10-16T05:43:05;12.40;99.90
60473;DHT22;46318;52.716;6.444;2022-10-16T05:45:30;12.40;99.90
60473;DHT22;46318;52.716;6.444;2022-10-16T05:47:56;12.40;99.90
60473;DHT22;46318;52.716;6.444;2022-10-16T05:50:22;12.40;99.90
60473;DHT22;46318;52.716;6.444;2022-10-16T05:52:47;12.40;99.90
60473;DHT22;46318;52.716;6.444;2022-10-16T05:55:13;12.40;99.90
60473;DHT22;46318;52.716;6.444;2022-10-16T05:57:39;12.40;99.90
60473;DHT22;46318;52.716;6.444;2022-10-16T06:00:05;12.40;99.90
60473;DHT22;46318;52.716;6.444;2022-10-16T06:02:32;12.40;99.90
60473;DHT22;46318;52.716;6.444;2022-10-16T06:04:57;12.40;99.90
60473;DHT22;46318;52.716;6.444;2022-10-16T06:07:23;12.40;99.90
60473;DHT22;46318;52.716;6.444;2022-10-16T06:09:50;12.40;99.90
60473;DHT22;46318;52.716;6.444;2022-10-16T06:12:17;12.30;99.90
60473;DHT22;46318;52.716;6.444;2022-10-16T06:14:42;12.30;99.90
60473;DHT22;46318;52.716;6.444;2022-10-16T06:17:08;12.30;99.90
60473;DHT22;46318;52.716;6.444;2022-10-16T06:19:34;12.40;99.90
60473;DHT22;46318;52.716;6.444;2022-10-16T06:21:59;12.40;99.90
60473;DHT22;46318;52.716;6.444;2022-10-16T06:24:25;12.30;99.90
60473;DHT22;46318;52.716;6.444;2022-10-16T06:26:51;12.30;99.90
60473;DHT22;46318;52.716;6.444;2022-10-16T06:29:17;12.30;99.90
60473;DHT22;46318;52.716;6.444;2022-10-16T06:31:42;12.40;99.90
60473;DHT22;46318;52.716;6.444;2022-10-16T06:34:09;12.40;99.90
60473;DHT22;46318;52.716;6.444;2022-10-16T06:36:37;12.40;99.90
60473;DHT22;46318;52.716;6.444;2022-10-16T06:39:04;12.40;99.90
60473;DHT22;46318;52.716;6.444;2022-10-16T06:41:31;12.40;99.90
60473;DHT22;46318;52.716;6.444;2022-10-16T06:43:56;12.40;99.90
60473;DHT22;46318;52.716;6.444;2022-10-16T06:46:24;12.40;99.90
60473;DHT22;46318;52.716;6.444;2022-10-16T06:48:51;12.40;99.90
60473;DHT22;46318;52.716;6.444;2022-10-16T06:51:19;12.40;99.90
60473;DHT22;46318;52.716;6.444;2022-10-16T06:53:51;12.50;99.90
60473;DHT22;46318;52.716;6.444;2022-10-16T06:56:24;12.50;99.90
60473;DHT22;46318;52.716;6.444;2022-10-16T06:58:51;12.50;99.90
60473;DHT22;46318;52.716;6.444;2022-10-16T07:01:19;12.50;99.90
60473;DHT22;46318;52.716;6.444;2022-10-16T07:03:47;12.50;99.90
60473;DHT22;46318;52.716;6.444;2022-10-16T07:06:15;12.50;99.90
60473;DHT22;46318;52.716;6.444;2022-10-16T07:08:44;12.60;99.90
60473;DHT22;46318;52.716;6.444;2022-10-16T07:11:13;12.60;99.90
60473;DHT22;46318;52.716;6.444;2022-10-16T07:13:41;12.60;99.90
60473;DHT22;46318;52.716;6.444;2022-10-16T07:16:16;12.60;99.90
60473;DHT22;46318;52.716;6.444;2022-10-16T07:18:43;12.60;99.90
60473;DHT22;46318;52.716;6.444;2022-10-16T07:21:19;12.60;99.90
60473;DHT22;46318;52.716;6.444;2022-10-16T07:23:49;12.70;99.90
60473;DHT22;46318;52.716;6.444;2022-10-16T07:26:16;12.70;99.90
60473;DHT22;46318;52.716;6.444;2022-10-16T07:28:42;12.70;99.90
60473;DHT22;46318;52.716;6.444;2022-10-16T07:31:11;12.70;99.90
60473;DHT22;46318;52.716;6.444;2022-10-16T07:33:40;12.80;99.90
60473;DHT22;46318;52.716;6.444;2022-10-16T07:36:10;12.80;99.90
60473;DHT22;46318;52.716;6.444;2022-10-16T07:38:37;12.90;99.90
60473;DHT22;46318;52.716;6.444;2022-10-16T07:41:06;12.90;99.90
60473;DHT22;46318;52.716;6.444;2022-10-16T07:43:33;12.90;99.90
60473;DHT22;46318;52.716;6.444;2022-10-16T07:46:00;12.90;99.90
60473;DHT22;46318;52.716;6.444;2022-10-16T07:48:31;12.90;99.90
60473;DHT22;46318;52.716;6.444;2022-10-16T07:51:02;13.00;99.90
60473;DHT22;46318;52.716;6.444;2022-10-16T07:53:29;13.00;99.90
60473;DHT22;46318;52.716;6.444;2022-10-16T07:56:02;13.00;99.90
60473;DHT22;46318;52.716;6.444;2022-10-16T07:58:30;13.10;99.90
60473;DHT22;46318;52.716;6.444;2022-10-16T08:00:56;13.10;99.90
60473;DHT22;46318;52.716;6.444;2022-10-16T08:03:23;13.10;99.90
60473;DHT22;46318;52.716;6.444;2022-10-16T08:05:49;13.10;99.90
60473;DHT22;46318;52.716;6.444;2022-10-16T08:08:16;13.20;99.90
60473;DHT22;46318;52.716;6.444;2022-10-16T08:10:43;13.20;99.90
60473;DHT22;46318;52.716;6.444;2022-10-16T08:13:10;13.20;99.90
60473;DHT22;46318;52.716;6.444;2022-10-16T08:15:35;13.20;99.90
60473;DHT22;46318;52.716;6.444;2022-10-16T08:18:03;13.30;99.90
60473;DHT22;46318;52.716;6.444;2022-10-16T08:20:31;13.30;99.90
60473;DHT22;46318;52.716;6.444;2022-10-16T08:22:57;13.30;99.90
60473;DHT22;46318;52.716;6.444;2022-10-16T08:25:24;13.40;99.90
60473;DHT22;46318;52.716;6.444;2022-10-16T08:27:50;13.40;99.90
60473;DHT22;46318;52.716;6.444;2022-10-16T08:30:21;13.40;99.90
60473;DHT22;46318;52.716;6.444;2022-10-16T08:32:49;13.50;99.90
60473;DHT22;46318;52.716;6.444;2022-10-16T08:35:15;13.50;99.90
60473;DHT22;46318;52.716;6.444;2022-10-16T08:37:43;13.60;99.90
60473;DHT22;46318;52.716;6.444;2022-10-16T08:40:38;13.60;99.90
60473;DHT22;46318;52.716;6.444;2022-10-16T08:51:34;13.70;99.90
60473;DHT22;46318;52.716;6.444;2022-10-16T08:54:03;13.70;99.90
60473;DHT22;46318;52.716;6.444;2022-10-16T08:56:31;13.80;99.90
60473;DHT22;46318;52.716;6.444;2022-10-16T08:58:59;13.90;99.90
60473;DHT22;46318;52.716;6.444;2022-10-16T09:01:38;14.00;99.90
60473;DHT22;46318;52.716;6.444;2022-10-16T09:07:27;14.20;99.90
60473;DHT22;46318;52.716;6.444;2022-10-16T09:23:14;14.70;99.90
60473;DHT22;46318;52.716;6.444;2022-10-16T09:25:55;14.80;99.90
60473;DHT22;46318;52.716;6.444;2022-10-16T09:28:24;14.90;99.90
60473;DHT22;46318;52.716;6.444;2022-10-16T09:30:50;14.90;99.90
60473;DHT22;46318;52.716;6.444;2022-10-16T09:33:19;15.00;99.90
60473;DHT22;46318;52.716;6.444;2022-10-16T09:35:52;15.10;99.90
60473;DHT22;46318;52.716;6.444;2022-10-16T09:38:29;15.20;99.90
60473;DHT22;46318;52.716;6.444;2022-10-16T09:41:01;15.30;99.90
60473;DHT22;46318;52.716;6.444;2022-10-16T09:43:42;15.30;99.90
60473;DHT22;46318;52.716;6.444;2022-10-16T09:46:25;15.40;99.90
60473;DHT22;46318;52.716;6.444;2022-10-16T09:49:05;15.50;99.90
60473;DHT22;46318;52.716;6.444;2022-10-16T09:51:49;15.60;99.90
60473;DHT22;46318;52.716;6.444;2022-10-16T09:54:20;15.70;99.90
60473;DHT22;46318;52.716;6.444;2022-10-16T09:56:46;15.70;99.90
60473;DHT22;46318;52.716;6.444;2022-10-16T09:59:21;15.80;99.90
60473;DHT22;46318;52.716;6.444;2022-10-16T10:01:53;15.90;99.90
60473;DHT22;46318;52.716;6.444;2022-10-16T10:04:24;15.90;99.90
60473;DHT22;46318;52.716;6.444;2022-10-16T10:06:55;16.00;99.90
60473;DHT22;46318;52.716;6.444;2022-10-16T10:11:57;16.10;99.90
60473;DHT22;46318;52.716;6.444;2022-10-16T10:19:46;16.40;99.90
60473;DHT22;46318;52.716;6.444;2022-10-16T10:30:54;16.60;99.90
60473;DHT22;46318;52.716;6.444;2022-10-16T10:33:45;16.60;99.90
60473;DHT22;46318;52.716;6.444;2022-10-16T10:36:35;16.60;99.90
60473;DHT22;46318;52.716;6.444;2022-10-16T10:47:59;16.60;99.90
60473;DHT22;46318;52.716;6.444;2022-10-16T11:02:41;17.20;99.90
60473;DHT22;46318;52.716;6.444;2022-10-16T11:08:17;17.40;99.90
60473;DHT22;46318;52.716;6.444;2022-10-16T11:10:58;17.50;99.50
60473;DHT22;46318;52.716;6.444;2022-10-16T11:17:07;17.60;99.10
60473;DHT22;46318;52.716;6.444;2022-10-16T11:22:36;17.70;98.20
60473;DHT22;46318;52.716;6.444;2022-10-16T11:25:26;17.80;98.00
60473;DHT22;46318;52.716;6.444;2022-10-16T11:30:52;17.90;97.90
60473;DHT22;46318;52.716;6.444;2022-10-16T11:33:41;17.90;97.90
60473;DHT22;46318;52.716;6.444;2022-10-16T11:39:00;18.10;97.60
60473;DHT22;46318;52.716;6.444;2022-10-16T11:44:50;18.20;96.70
60473;DHT22;46318;52.716;6.444;2022-10-16T11:47:35;18.20;96.70
60473;DHT22;46318;52.716;6.444;2022-10-16T11:53:35;18.20;96.70
60473;DHT22;46318;52.716;6.444;2022-10-16T11:56:15;18.20;96.50
60473;DHT22;46318;52.716;6.444;2022-10-16T11:58:56;18.30;96.40
60473;DHT22;46318;52.716;6.444;2022-10-16T12:04:25;18.40;96.00
60473;DHT22;46318;52.716;6.444;2022-10-16T12:07:03;18.30;95.90
60473;DHT22;46318;52.716;6.444;2022-10-16T12:09:36;18.30;95.60
60473;DHT22;46318;52.716;6.444;2022-10-16T12:12:04;18.20;95.70
60473;DHT22;46318;52.716;6.444;2022-10-16T12:14:47;18.20;95.80
60473;DHT22;46318;52.716;6.444;2022-10-16T12:20:00;18.30;95.70
60473;DHT22;46318;52.716;6.444;2022-10-16T12:22:47;18.40;95.50
60473;DHT22;46318;52.716;6.444;2022-10-16T12:28:20;18.30;95.10
60473;DHT22;46318;52.716;6.444;2022-10-16T12:30:55;18.40;95.10
60473;DHT22;46318;52.716;6.444;2022-10-16T12:33:27;18.30;95.30
60473;DHT22;46318;52.716;6.444;2022-10-16T12:35:55;18.30;95.20
60473;DHT22;46318;52.716;6.444;2022-10-16T12:41:06;18.30;95.40
60473;DHT22;46318;52.716;6.444;2022-10-16T12:43:42;18.40;95.10
60473;DHT22;46318;52.716;6.444;2022-10-16T12:48:37;18.40;94.60
60473;DHT22;46318;52.716;6.444;2022-10-16T13:05:22;18.80;92.70
60473;DHT22;46318;52.716;6.444;2022-10-16T13:11:01;18.80;92.60
60473;DHT22;46318;52.716;6.444;2022-10-16T13:14:04;18.80;92.20
60473;DHT22;46318;52.716;6.444;2022-10-16T13:17:22;18.70;91.70
60473;DHT22;46318;52.716;6.444;2022-10-16T13:22:55;18.60;91.30
60473;DHT22;46318;52.716;6.444;2022-10-16T13:28:10;18.50;91.90
60473;DHT22;46318;52.716;6.444;2022-10-16T13:30:38;18.50;91.90
60473;DHT22;46318;52.716;6.444;2022-10-16T13:33:20;18.40;91.50
60473;DHT22;46318;52.716;6.444;2022-10-16T13:35:52;18.40;91.00
60473;DHT22;46318;52.716;6.444;2022-10-16T13:38:26;18.30;91.10
60473;DHT22;46318;52.716;6.444;2022-10-16T13:41:15;18.30;91.00
60473;DHT22;46318;52.716;6.444;2022-10-16T13:43:46;18.20;90.90
60473;DHT22;46318;52.716;6.444;2022-10-16T13:46:20;18.20;91.10
60473;DHT22;46318;52.716;6.444;2022-10-16T13:49:25;18.20;91.50
60473;DHT22;46318;52.716;6.444;2022-10-16T13:51:58;18.10;91.00
60473;DHT22;46318;52.716;6.444;2022-10-16T13:54:26;18.10;91.10
60473;DHT22;46318;52.716;6.444;2022-10-16T13:56:54;18.00;90.90
60473;DHT22;46318;52.716;6.444;2022-10-16T13:59:33;18.00;90.80
60473;DHT22;46318;52.716;6.444;2022-10-16T14:02:00;18.00;91.00
60473;DHT22;46318;52.716;6.444;2022-10-16T14:04:38;18.00;90.50
60473;DHT22;46318;52.716;6.444;2022-10-16T14:07:05;18.00;90.80
60473;DHT22;46318;52.716;6.444;2022-10-16T14:09:31;17.90;90.90
60473;DHT22;46318;52.716;6.444;2022-10-16T14:12:17;18.00;90.90
60473;DHT22;46318;52.716;6.444;2022-10-16T14:14:46;17.90;90.90
60473;DHT22;46318;52.716;6.444;2022-10-16T14:17:21;17.90;91.50
60473;DHT22;46318;52.716;6.444;2022-10-16T14:19:49;17.90;91.70
60473;DHT22;46318;52.716;6.444;2022-10-16T14:25:15;17.90;92.10
60473;DHT22;46318;52.716;6.444;2022-10-16T14:30:55;17.80;92.50
60473;DHT22;46318;52.716;6.444;2022-10-16T14:33:31;17.80;92.60
60473;DHT22;46318;52.716;6.444;2022-10-16T14:38:27;17.80;92.80
60473;DHT22;46318;52.716;6.444;2022-10-16T14:40:53;17.80;92.60
60473;DHT22;46318;52.716;6.444;2022-10-16T14:43:30;17.80;92.70
60473;DHT22;46318;52.716;6.444;2022-10-16T14:46:02;17.80;92.80
60473;DHT22;46318;52.716;6.444;2022-10-16T14:48:30;17.70;93.00
60473;DHT22;46318;52.716;6.444;2022-10-16T14:50:56;17.70;93.00
60473;DHT22;46318;52.716;6.444;2022-10-16T14:53:22;17.70;92.90
60473;DHT22;46318;52.716;6.444;2022-10-16T14:55:48;17.70;92.90
60473;DHT22;46318;52.716;6.444;2022-10-16T14:58:19;17.70;93.10
60473;DHT22;46318;52.716;6.444;2022-10-16T15:00:47;17.70;93.30
60473;DHT22;46318;52.716;6.444;2022-10-16T15:03:13;17.70;93.60
60473;DHT22;46318;52.716;6.444;2022-10-16T15:05:38;17.70;93.50
60473;DHT22;46318;52.716;6.444;2022-10-16T15:08:04;17.60;93.70
60473;DHT22;46318;52.716;6.444;2022-10-16T15:10:31;17.70;93.90
60473;DHT22;46318;52.716;6.444;2022-10-16T15:12:59;17.60;93.90
60473;DHT22;46318;52.716;6.444;2022-10-16T15:15:37;17.60;94.10
60473;DHT22;46318;52.716;6.444;2022-10-16T15:18:05;17.60;94.20
60473;DHT22;46318;52.716;6.444;2022-10-16T15:20:33;17.50;94.10
60473;DHT22;46318;52.716;6.444;2022-10-16T15:23:06;17.50;93.80
60473;DHT22;46318;52.716;6.444;2022-10-16T15:25:47;17.50;94.00
60473;DHT22;46318;52.716;6.444;2022-10-16T15:28:16;17.50;94.30
60473;DHT22;46318;52.716;6.444;2022-10-16T15:30:42;17.40;94.40
60473;DHT22;46318;52.716;6.444;2022-10-16T15:33:15;17.40;94.40
60473;DHT22;46318;52.716;6.444;2022-10-16T15:35:54;17.40;94.60
60473;DHT22;46318;52.716;6.444;2022-10-16T15:38:21;17.40;94.80
60473;DHT22;46318;52.716;6.444;2022-10-16T15:40:50;17.40;95.10
60473;DHT22;46318;52.716;6.444;2022-10-16T15:43:16;17.30;95.20
60473;DHT22;46318;52.716;6.444;2022-10-16T15:45:42;17.30;95.40
60473;DHT22;46318;52.716;6.444;2022-10-16T15:48:12;17.20;95.60
60473;DHT22;46318;52.716;6.444;2022-10-16T15:50:39;17.30;95.70
60473;DHT22;46318;52.716;6.444;2022-10-16T15:53:05;17.20;95.80
60473;DHT22;46318;52.716;6.444;2022-10-16T15:55:31;17.20;96.00
60473;DHT22;46318;52.716;6.444;2022-10-16T15:57:57;17.10;96.00
60473;DHT22;46318;52.716;6.444;2022-10-16T16:00:23;17.10;96.10
60473;DHT22;46318;52.716;6.444;2022-10-16T16:02:54;17.00;96.10
60473;DHT22;46318;52.716;6.444;2022-10-16T16:05:21;17.00;96.40
60473;DHT22;46318;52.716;6.444;2022-10-16T16:07:48;17.00;96.70
60473;DHT22;46318;52.716;6.444;2022-10-16T16:10:14;16.90;96.80
60473;DHT22;46318;52.716;6.444;2022-10-16T16:12:40;16.90;97.00
60473;DHT22;46318;52.716;6.444;2022-10-16T16:15:07;16.80;97.20
60473;DHT22;46318;52.716;6.444;2022-10-16T16:17:35;16.80;97.40
60473;DHT22;46318;52.716;6.444;2022-10-16T16:20:02;16.80;97.50
60473;DHT22;46318;52.716;6.444;2022-10-16T16:22:29;16.70;97.70
60473;DHT22;46318;52.716;6.444;2022-10-16T16:24:55;16.70;97.80
60473;DHT22;46318;52.716;6.444;2022-10-16T16:27:20;16.60;97.90
60473;DHT22;46318;52.716;6.444;2022-10-16T16:29:47;16.50;98.10
60473;DHT22;46318;52.716;6.444;2022-10-16T16:32:13;16.50;98.40
60473;DHT22;46318;52.716;6.444;2022-10-16T16:34:39;16.50;98.60
60473;DHT22;46318;52.716;6.444;2022-10-16T16:37:04;16.50;98.70
60473;DHT22;46318;52.716;6.444;2022-10-16T16:39:30;16.40;98.80
60473;DHT22;46318;52.716;6.444;2022-10-16T16:41:57;16.30;98.90
60473;DHT22;46318;52.716;6.444;2022-10-16T16:44:26;16.30;99.00
60473;DHT22;46318;52.716;6.444;2022-10-16T16:46:52;16.30;99.10
60473;DHT22;46318;52.716;6.444;2022-10-16T16:49:18;16.20;99.20
60473;DHT22;46318;52.716;6.444;2022-10-16T16:51:44;16.20;99.40
60473;DHT22;46318;52.716;6.444;2022-10-16T16:54:10;16.10;99.50
60473;DHT22;46318;52.716;6.444;2022-10-16T16:56:38;16.00;99.60
60473;DHT22;46318;52.716;6.444;2022-10-16T16:59:04;16.00;99.70
60473;DHT22;46318;52.716;6.444;2022-10-16T17:01:30;16.00;99.80
60473;DHT22;46318;52.716;6.444;2022-10-16T17:03:57;15.90;99.90
60473;DHT22;46318;52.716;6.444;2022-10-16T17:06:27;15.90;99.90
60473;DHT22;46318;52.716;6.444;2022-10-16T17:08:55;15.80;99.90
60473;DHT22;46318;52.716;6.444;2022-10-16T17:11:24;15.80;99.90
60473;DHT22;46318;52.716;6.444;2022-10-16T17:13:52;15.80;99.90
60473;DHT22;46318;52.716;6.444;2022-10-16T17:16:20;15.70;99.90
60473;DHT22;46318;52.716;6.444;2022-10-16T17:18:47;15.70;99.90
60473;DHT22;46318;52.716;6.444;2022-10-16T17:21:12;15.60;99.90
60473;DHT22;46318;52.716;6.444;2022-10-16T17:23:38;15.60;99.90
60473;DHT22;46318;52.716;6.444;2022-10-16T17:26:08;15.50;99.90
60473;DHT22;46318;52.716;6.444;2022-10-16T17:28:38;15.50;99.90
60473;DHT22;46318;52.716;6.444;2022-10-16T17:33:33;15.40;99.90
60473;DHT22;46318;52.716;6.444;2022-10-16T17:35:59;15.30;99.90
60473;DHT22;46318;52.716;6.444;2022-10-16T17:38:24;15.30;99.90
60473;DHT22;46318;52.716;6.444;2022-10-16T17:40:50;15.20;99.90
60473;DHT22;46318;52.716;6.444;2022-10-16T17:43:16;15.20;99.90
60473;DHT22;46318;52.716;6.444;2022-10-16T17:45:42;15.10;99.90
60473;DHT22;46318;52.716;6.444;2022-10-16T17:48:08;15.10;99.90
60473;DHT22;46318;52.716;6.444;2022-10-16T17:50:34;15.00;99.90
60473;DHT22;46318;52.716;6.444;2022-10-16T17:53:04;15.00;99.90
60473;DHT22;46318;52.716;6.444;2022-10-16T17:55:30;14.90;99.90
60473;DHT22;46318;52.716;6.444;2022-10-16T17:57:56;14.90;99.90
60473;DHT22;46318;52.716;6.444;2022-10-16T18:00:22;14.90;99.90
60473;DHT22;46318;52.716;6.444;2022-10-16T18:02:48;14.80;99.90
60473;DHT22;46318;52.716;6.444;2022-10-16T18:05:15;14.80;99.90
60473;DHT22;46318;52.716;6.444;2022-10-16T18:07:40;14.80;99.90
60473;DHT22;46318;52.716;6.444;2022-10-16T18:10:06;14.70;99.90
60473;DHT22;46318;52.716;6.444;2022-10-16T18:12:34;14.70;99.90
60473;DHT22;46318;52.716;6.444;2022-10-16T18:15:00;14.70;99.90
60473;DHT22;46318;52.716;6.444;2022-10-16T18:17:26;14.70;99.90
60473;DHT22;46318;52.716;6.444;2022-10-16T18:19:51;14.70;99.90
60473;DHT22;46318;52.716;6.444;2022-10-16T18:22:17;14.60;99.90